Time;durP1;ratioP1;P1;durP2;ratioP2;P2;SDS_P1;SDS_P2;PMS_P1;PMS_P2;Temp;Humidity;BMP_temperature;BMP_pressure;BME280_temperature;BME280_humidity;BME280_pressure;Samples;Min_cycle;Max_cycle;Signal;HPM_P1;HPM_P2
2022/03/16 00:04:34;;;;;;;5.20;4.47;;;;;;;19.91;41.39;97046.88;10074327;29;20060;-84
2022/03/16 00:09:54;;;;;;;7.15;5.60;;;;;;;19.89;41.27;97044.47;10046390;29;20052;-84
2022/03/16 00:15:13;;;;;;;6.05;4.88;;;;;;;19.87;41.42;97046.69;10078156;29;20418;-84
2022/03/16 00:20:33;;;;;;;8.40;5.50;;;;;;;19.87;41.20;97043.22;10099857;29;20045;-84
2022/03/16 00:25:52;;;;;;;6.45;5.07;;;;;;;19.86;41.42;97045.13;10091866;29;20052;-84
2022/03/16 00:31:12;;;;;;;5.60;5.07;;;;;;;19.84;41.36;97052.75;10063845;29;20101;-84
2022/03/16 00:36:32;;;;;;;5.25;4.75;;;;;;;19.84;41.27;97057.38;10084137;29;20171;-84
2022/03/16 00:41:51;;;;;;;7.03;5.20;;;;;;;19.82;41.20;97065.81;10093236;29;20128;-84
2022/03/16 00:47:11;;;;;;;5.55;4.75;;;;;;;19.81;41.25;97074.22;10078690;29;20129;-84
2022/03/16 00:52:31;;;;;;;5.80;4.85;;;;;;;19.79;41.16;97066.44;10067609;29;20048;-84
2022/03/16 00:57:51;;;;;;;4.93;4.43;;;;;;;19.77;40.94;97065.97;10091283;29;20132;-84
2022/03/16 01:03:12;;;;;;;4.93;4.35;;;;;;;19.76;41.05;97064.38;10069379;29;20108;-84
2022/03/16 01:08:32;;;;;;;5.18;4.68;;;;;;;19.75;40.88;97076.31;10069765;29;20052;-84
2022/03/16 01:13:52;;;;;;;4.97;3.97;;;;;;;19.73;41.16;97079.31;10071740;29;20044;-84
2022/03/16 01:19:14;;;;;;;4.82;4.32;;;;;;;19.73;41.01;97089.34;10084611;29;20464;-84
2022/03/16 01:24:34;;;;;;;4.90;4.40;;;;;;;19.70;40.94;97098.06;10095167;29;20049;-84
2022/03/16 01:29:54;;;;;;;4.78;4.07;;;;;;;19.70;40.91;97111.59;10067568;29;20052;-84
2022/03/16 01:35:14;;;;;;;4.75;4.03;;;;;;;19.68;40.86;97111.91;10083062;29;20034;-84
2022/03/16 01:40:34;;;;;;;4.97;4.28;;;;;;;19.66;40.71;97118.72;10048996;29;20049;-84
2022/03/16 01:45:54;;;;;;;4.43;3.95;;;;;;;19.65;40.67;97122.53;10036064;29;20041;-83
2022/03/16 01:51:14;;;;;;;5.18;4.13;;;;;;;19.65;40.81;97130.66;10078730;29;20048;-84
2022/03/16 01:56:34;;;;;;;4.30;3.90;;;;;;;19.63;40.66;97125.56;10053145;29;20065;-84
2022/03/16 02:01:53;;;;;;;4.68;4.25;;;;;;;19.61;40.66;97129.69;10078677;29;20046;-84
2022/03/16 02:07:14;;;;;;;4.53;4.13;;;;;;;19.60;40.65;97136.19;10069064;29;20438;-84
2022/03/16 02:12:43;;;;;;;5.03;4.28;;;;;;;19.58;40.60;97141.91;10058002;29;20050;-84
2022/03/16 02:18:03;;;;;;;4.32;3.92;;;;;;;19.59;40.73;97153.53;10109119;29;20042;-84
2022/03/16 02:23:23;;;;;;;5.30;4.15;;;;;;;19.56;40.47;97161.16;10065113;29;20109;-84
2022/03/16 02:28:42;;;;;;;4.53;3.95;;;;;;;19.55;40.64;97162.25;10093757;29;20036;-84
2022/03/16 02:34:02;;;;;;;4.07;3.67;;;;;;;19.54;40.54;97165.28;10102523;29;20045;-84
2022/03/16 02:39:22;;;;;;;4.15;3.75;;;;;;;19.53;40.41;97177.22;10077650;29;20060;-84
2022/03/16 02:44:41;;;;;;;4.10;3.70;;;;;;;19.51;40.55;97184.84;10055792;29;20049;-84
2022/03/16 02:50:02;;;;;;;4.63;4.10;;;;;;;19.51;40.60;97190.25;10071474;29;20049;-84
2022/03/16 02:55:22;;;;;;;4.10;3.67;;;;;;;19.49;40.43;97198.66;10095920;29;20057;-84
2022/03/16 03:00:43;;;;;;;4.55;3.85;;;;;;;19.48;40.37;97210.59;10116390;29;20040;-84
2022/03/16 03:06:03;;;;;;;3.90;3.60;;;;;;;19.47;40.54;97216.28;10121845;29;20041;-84
2022/03/16 03:11:23;;;;;;;3.95;3.58;;;;;;;19.45;40.54;97230.13;10114790;29;20051;-84
2022/03/16 03:16:42;;;;;;;3.70;3.40;;;;;;;19.43;40.47;97232.34;10127456;29;20049;-85
2022/03/16 03:22:05;;;;;;;3.90;3.50;;;;;;;19.42;40.53;97241.53;10112013;29;20479;-84
2022/03/16 03:27:24;;;;;;;4.07;3.67;;;;;;;19.41;40.33;97244.56;10119123;29;20096;-84
2022/03/16 03:32:44;;;;;;;4.18;3.78;;;;;;;19.41;40.32;97255.38;10100881;29;20037;-84
2022/03/16 03:38:04;;;;;;;3.50;3.20;;;;;;;19.38;40.28;97264.88;10135351;29;20043;-84
2022/03/16 03:43:24;;;;;;;3.97;3.30;;;;;;;19.37;40.40;97271.41;10089931;29;20124;-84
2022/03/16 03:48:43;;;;;;;3.50;3.20;;;;;;;19.36;40.43;97275.19;10071977;29;20077;-84
2022/03/16 03:54:02;;;;;;;3.45;3.15;;;;;;;19.35;40.22;97281.72;10095845;29;20557;-84
2022/03/16 03:59:23;;;;;;;3.47;3.17;;;;;;;19.34;40.34;97291.72;10119127;29;20548;-84
2022/03/16 04:04:42;;;;;;;3.67;3.38;;;;;;;19.32;40.24;97298.53;10127920;29;20049;-84
2022/03/16 04:10:02;;;;;;;3.80;3.40;;;;;;;19.31;40.27;97305.06;10102328;29;20051;-84
2022/03/16 04:15:21;;;;;;;3.72;3.20;;;;;;;19.29;40.35;97315.38;10102290;29;20056;-84
2022/03/16 04:20:41;;;;;;;3.80;3.50;;;;;;;19.29;40.30;97327.00;10116977;29;20686;-84
2022/03/16 04:26:00;;;;;;;3.63;3.33;;;;;;;19.28;40.67;97338.88;10134327;29;20067;-84
2022/03/16 04:31:21;;;;;;;3.50;3.20;;;;;;;19.27;40.19;97347.31;10084961;29;20048;-84
2022/03/16 04:36:40;;;;;;;3.65;3.17;;;;;;;19.25;40.18;97344.91;10106707;29;20060;-84
2022/03/16 04:42:00;;;;;;;3.63;3.30;;;;;;;19.24;40.33;97364.13;10099961;29;20115;-84
2022/03/16 04:47:19;;;;;;;3.17;2.88;;;;;;;19.24;40.22;97383.84;10074604;29;20139;-84
2022/03/16 04:52:47;;;;;;;3.38;3.08;;;;;;;19.23;40.32;97384.13;10106009;29;20119;-84
2022/03/16 04:58:08;;;;;;;3.42;3.13;;;;;;;19.23;40.33;97381.44;10091569;29;20493;-84
2022/03/16 05:03:27;;;;;;;3.40;3.10;;;;;;;19.23;40.23;97386.84;10086953;29;20127;-83
2022/03/16 05:08:47;;;;;;;3.35;3.05;;;;;;;19.23;40.38;97401.16;10111685;29;20045;-83
2022/03/16 05:14:07;;;;;;;3.30;3.00;;;;;;;19.24;40.73;97405.44;10116771;29;20039;-84
2022/03/16 05:19:28;;;;;;;4.78;2.90;;;;;;;19.25;40.85;97414.34;10104623;29;20045;-85
2022/03/16 05:24:47;;;;;;;4.18;2.80;;;;;;;19.25;40.76;97420.56;10130108;29;20049;-84
2022/03/16 05:30:08;;;;;;;3.50;3.05;;;;;;;19.26;40.94;97427.53;10076348;29;20089;-84
2022/03/16 05:35:28;;;;;;;3.20;2.90;;;;;;;19.28;41.09;97428.03;10081578;29;20052;-84
2022/03/16 05:40:48;;;;;;;3.28;3.00;;;;;;;19.30;41.37;97441.25;10059722;29;20056;-83
2022/03/16 05:46:07;;;;;;;5.10;3.03;;;;;;;19.31;41.46;97445.56;10104729;29;20073;-85
2022/03/16 05:51:27;;;;;;;3.30;3.00;;;;;;;19.33;41.56;97456.84;10094988;29;20049;-84
2022/03/16 05:56:47;;;;;;;3.67;3.03;;;;;;;19.36;41.56;97473.22;10062412;29;20054;-84
2022/03/16 06:02:07;;;;;;;15.38;12.13;;;;;;;19.28;38.80;97473.16;10062373;29;20045;-86
2022/03/16 06:07:26;;;;;;;12.30;11.00;;;;;;;18.92;38.76;97498.28;10088065;29;20053;-84
2022/03/16 06:12:54;;;;;;;8.75;6.90;;;;;;;19.06;40.26;97507.13;10070497;29;20512;-85
2022/03/16 06:18:14;;;;;;;9.75;6.88;;;;;;;19.20;40.29;97514.41;10049806;29;20068;-86
2022/03/16 06:23:35;;;;;;;35.85;10.35;;;;;;;19.27;40.32;97528.31;10079936;29;20038;-85
2022/03/16 06:28:54;;;;;;;24.85;9.55;;;;;;;19.35;40.46;97528.38;10081407;29;20045;-86
2022/03/16 06:34:14;;;;;;;23.13;8.60;;;;;;;19.42;40.40;97537.97;10099521;29;20045;-86
2022/03/16 06:39:33;;;;;;;16.23;8.23;;;;;;;19.47;40.46;97543.25;10072607;29;20042;-86
2022/03/16 06:44:52;;;;;;;20.58;7.70;;;;;;;19.51;40.55;97542.34;10080974;29;20052;-86
2022/03/16 06:50:13;;;;;;;16.30;8.00;;;;;;;19.58;40.34;97546.50;10083305;29;20153;-86
2022/03/16 06:55:32;;;;;;;17.65;7.53;;;;;;;19.61;40.29;97554.03;10057053;29;20057;-86
2022/03/16 07:00:52;;;;;;;14.90;6.82;;;;;;;19.66;40.50;97564.69;10069826;29;20050;-86
2022/03/16 07:06:12;;;;;;;13.52;6.75;;;;;;;19.69;40.26;97574.91;10078250;29;20037;-86
2022/03/16 07:11:31;;;;;;;14.40;6.47;;;;;;;19.72;40.53;97574.34;10058171;29;20457;-85
2022/03/16 07:16:50;;;;;;;12.70;7.43;;;;;;;19.75;40.38;97585.31;10088216;29;20117;-85
2022/03/16 07:22:09;;;;;;;13.88;6.93;;;;;;;19.80;40.60;97599.81;10059476;29;20115;-86
2022/03/16 07:27:29;;;;;;;13.68;6.75;;;;;;;19.83;40.36;97602.72;10037415;29;20042;-86
2022/03/16 07:32:49;;;;;;;12.48;6.30;;;;;;;19.87;40.25;97614.50;10022790;29;20049;-85
2022/03/16 07:38:08;;;;;;;13.10;6.53;;;;;;;19.91;40.26;97618.19;10062347;29;20049;-86
2022/03/16 07:43:29;;;;;;;10.05;5.93;;;;;;;19.97;40.21;97620.78;10023927;29;20049;-85
2022/03/16 07:48:50;;;;;;;12.75;6.40;;;;;;;20.01;40.28;97625.28;10033608;29;20493;-85
2022/03/16 07:54:09;;;;;;;11.55;6.32;;;;;;;20.06;40.33;97632.50;10049924;29;20038;-87
2022/03/16 07:59:28;;;;;;;10.38;6.53;;;;;;;20.09;40.15;97637.25;10026804;29;20138;-86
2022/03/16 08:04:48;;;;;;;11.13;5.90;;;;;;;20.13;40.11;97643.66;10040816;29;20041;-86
2022/03/16 08:10:07;;;;;;;8.63;6.22;;;;;;;20.18;39.85;97661.69;10031925;29;20049;-86
2022/03/16 08:15:27;;;;;;;11.63;5.70;;;;;;;20.22;39.88;97666.16;10073005;29;20073;-86
2022/03/16 08:20:46;;;;;;;10.77;6.03;;;;;;;20.27;39.95;97670.69;10069706;29;20049;-86
2022/03/16 08:26:06;;;;;;;10.80;5.65;;;;;;;20.31;39.78;97671.66;10057128;29;20045;-86
2022/03/16 08:31:25;;;;;;;7.85;5.35;;;;;;;20.34;39.83;97674.53;10056904;29;20057;-86
2022/03/16 08:36:45;;;;;;;10.43;5.43;;;;;;;20.38;39.70;97677.44;10057121;29;20048;-86
2022/03/16 08:42:08;;;;;;;10.40;5.65;;;;;;;20.42;39.72;97683.03;10043879;29;20413;-85
2022/03/16 08:47:28;;;;;;;6.55;4.63;;;;;;;20.44;39.58;97686.22;10031326;29;20046;-85
2022/03/16 08:52:48;;;;;;;8.35;5.10;;;;;;;20.46;39.64;97695.63;10020657;29;20045;-85
2022/03/16 08:58:07;;;;;;;9.02;5.13;;;;;;;20.50;39.73;97701.22;10060253;29;20416;-86
2022/03/16 09:03:26;;;;;;;7.00;5.00;;;;;;;20.51;39.64;97705.53;10047782;29;20049;-85
2022/03/16 09:08:46;;;;;;;7.88;5.10;;;;;;;20.53;39.60;97714.16;10075986;29;20053;-86
2022/03/16 09:14:06;;;;;;;6.78;4.97;;;;;;;20.53;39.55;97711.44;10034848;29;20041;-85
2022/03/16 09:19:26;;;;;;;7.45;4.90;;;;;;;20.55;39.56;97717.34;10033434;29;20045;-85
2022/03/16 09:24:48;;;;;;;6.75;4.75;;;;;;;20.55;39.60;97715.44;10048147;29;20041;-85
2022/03/16 09:30:08;;;;;;;8.85;5.20;;;;;;;20.57;39.58;97725.97;10070982;29;20041;-86
2022/03/16 09:35:30;;;;;;;7.43;4.43;;;;;;;20.57;39.59;97734.09;10072054;29;20045;-85
2022/03/16 09:40:56;;;;;;;7.43;5.00;;;;;;;20.58;39.54;97743.81;10053059;29;20049;-85
2022/03/16 09:46:19;;;;;;;8.40;5.15;;;;;;;20.57;39.50;97739.50;10038915;29;20042;-85
2022/03/16 09:51:41;;;;;;;7.88;4.85;;;;;;;20.58;39.34;97741.13;10064438;29;20042;-85
2022/03/16 09:57:00;;;;;;;7.03;5.00;;;;;;;20.58;39.36;97738.41;10057082;29;20053;-87
2022/03/16 10:02:21;;;;;;;6.55;4.70;;;;;;;20.58;39.53;97740.28;10049588;29;20046;-87
2022/03/16 10:07:45;;;;;;;7.35;5.05;;;;;;;20.58;39.64;97741.13;10038402;29;20453;-87
2022/03/16 10:13:15;;;;;;;7.38;5.20;;;;;;;20.58;39.64;97754.66;10030721;29;20485;-87
2022/03/16 10:18:36;;;;;;;8.18;4.47;;;;;;;20.59;39.64;97755.44;10050152;29;20171;-87
2022/03/16 10:24:02;;;;;;;5.25;4.40;;;;;;;20.59;39.84;97758.16;10049520;29;20060;-86
2022/03/16 10:29:22;;;;;;;7.28;4.90;;;;;;;20.59;39.85;97756.25;10047540;29;20049;-87
2022/03/16 10:34:52;;;;;;;6.88;4.40;;;;;;;20.60;39.79;97757.06;10042405;29;20101;-87
2022/03/16 10:40:26;;;;;;;6.65;4.43;;;;;;;20.59;40.05;97764.38;10030113;29;20054;-87
2022/03/16 10:51:23;;;;;;;5.10;4.15;;;;;;;20.59;40.07;97764.38;10048698;29;20106;-87
2022/03/16 10:56:46;;;;;;;6.53;4.50;;;;;;;20.59;40.27;97764.38;10046996;29;20060;-87
2022/03/16 11:02:12;;;;;;;5.15;4.57;;;;;;;20.58;39.89;97773.59;10049925;29;20058;-87
2022/03/16 11:07:32;;;;;;;6.38;4.40;;;;;;;20.58;39.82;97757.34;10052592;29;20049;-87
2022/03/16 11:18:29;;;;;;;5.33;4.23;;;;;;;20.56;40.14;97743.28;10064203;29;20097;-87
2022/03/16 11:29:54;;;;;;;31.42;18.30;;;;;;;20.57;41.35;97746.81;10020161;29;20113;-88
2022/03/16 11:35:16;;;;;;;36.22;18.33;;;;;;;20.55;41.93;97761.47;10035973;29;20069;-87
2022/03/16 11:40:38;;;;;;;28.77;14.63;;;;;;;20.57;41.63;97768.47;10046278;29;20061;-88
2022/03/16 11:45:59;;;;;;;23.67;13.15;;;;;;;20.55;41.74;97766.88;10032258;29;20113;-88
2022/03/16 11:51:23;;;;;;;34.13;14.73;;;;;;;20.54;41.18;97757.16;10037206;29;20057;-88
2022/03/16 11:56:45;;;;;;;29.08;14.95;;;;;;;20.55;40.45;97757.97;10030511;29;20053;-88
2022/03/16 12:02:10;;;;;;;24.13;15.30;;;;;;;20.55;40.02;97757.97;10065053;29;20132;-88
2022/03/16 12:07:34;;;;;;;19.80;14.73;;;;;;;20.52;39.08;97761.25;10079638;29;20045;-88
2022/03/16 12:12:59;;;;;;;20.42;14.70;;;;;;;20.51;38.93;97751.56;10081801;29;20045;-87
2022/03/16 12:18:19;;;;;;;18.02;14.07;;;;;;;20.50;38.84;97744.53;10100082;29;20109;-88
2022/03/16 12:23:58;;;;;;;16.50;13.98;;;;;;;20.47;37.99;97740.53;10101667;29;20057;-88
2022/03/16 12:29:23;;;;;;;17.33;13.30;;;;;;;20.44;37.81;97730.31;10061238;29;20416;-88
2022/03/16 12:34:43;;;;;;;15.48;12.70;;;;;;;20.44;37.61;97724.09;10096998;29;20052;-87
2022/03/16 12:40:10;;;;;;;17.02;12.40;;;;;;;20.42;37.17;97729.03;10102654;29;20131;-87
2022/03/16 12:45:30;;;;;;;14.82;11.82;;;;;;;20.40;36.71;97733.97;10076221;29;20051;-86
2022/03/16 12:50:51;;;;;;;15.93;12.30;;;;;;;20.36;36.22;97733.75;10100026;29;20097;-87
2022/03/16 12:56:19;;;;;;;13.43;11.60;;;;;;;20.32;35.54;97738.19;10094774;29;20056;-87
2022/03/16 13:01:39;;;;;;;12.70;10.75;;;;;;;20.28;35.23;97735.28;10091687;29;20056;-86
2022/03/16 13:07:00;;;;;;;11.43;10.20;;;;;;;20.27;35.21;97741.81;10097330;29;20463;-86
2022/03/16 13:12:22;;;;;;;10.77;9.77;;;;;;;20.27;35.09;97735.63;10043243;29;20409;-86
2022/03/16 13:17:45;;;;;;;10.68;9.57;;;;;;;20.25;34.59;97738.63;10082536;29;20046;-86
2022/03/16 13:23:05;;;;;;;12.68;10.23;;;;;;;20.23;34.56;97738.13;10078730;29;20045;-86
2022/03/16 13:28:24;;;;;;;13.77;10.75;;;;;;;20.21;34.39;97737.63;10058383;29;20051;-86
2022/03/16 13:33:45;;;;;;;11.50;10.30;;;;;;;20.18;34.20;97732.81;10052779;29;20073;-86
2022/03/16 13:39:27;;;;;;;13.43;10.77;;;;;;;20.18;33.97;97732.81;10078799;29;20045;-86
2022/03/16 13:44:49;;;;;;;13.65;11.23;;;;;;;20.19;34.39;97745.25;10074937;29;20041;-86
2022/03/16 13:50:22;;;;;;;13.50;10.50;;;;;;;20.22;34.37;97739.22;10053592;29;20045;-86
2022/03/16 13:55:41;;;;;;;12.23;10.52;;;;;;;20.23;33.97;97740.84;10060302;29;20398;-86
2022/03/16 14:01:01;;;;;;;11.57;10.10;;;;;;;20.23;33.65;97731.91;10056664;29;20075;-87
2022/03/16 14:06:21;;;;;;;12.55;10.40;;;;;;;20.25;33.72;97733.22;10059003;29;20053;-87
2022/03/16 14:11:45;;;;;;;13.55;9.77;;;;;;;20.28;34.00;97738.00;10095347;29;20045;-86
2022/03/16 14:17:05;;;;;;;9.13;8.00;;;;;;;20.29;34.21;97739.63;10060349;29;20482;-87
2022/03/16 14:22:27;;;;;;;10.38;8.13;;;;;;;20.30;34.32;97741.19;10039142;29;20079;-85
2022/03/16 14:27:50;;;;;;;8.85;7.90;;;;;;;20.30;34.58;97745.81;10092572;29;20053;-86
2022/03/16 14:33:09;;;;;;;9.32;7.60;;;;;;;20.32;34.57;97744.41;10090435;29;20045;-86
2022/03/16 14:38:29;;;;;;;8.93;7.55;;;;;;;20.33;34.43;97735.19;10091945;29;20106;-86
2022/03/16 14:43:48;;;;;;;8.68;7.50;;;;;;;20.34;34.74;97734.06;10053734;29;20056;-85
2022/03/16 14:49:08;;;;;;;8.30;7.13;;;;;;;20.35;34.97;97727.56;10076426;29;20048;-86
2022/03/16 14:54:27;;;;;;;8.50;7.47;;;;;;;20.38;35.15;97728.84;10079591;29;20049;-85
2022/03/16 14:59:47;;;;;;;8.80;7.68;;;;;;;20.41;35.37;97732.88;10064200;29;20136;-86
2022/03/16 15:05:07;;;;;;;10.63;7.72;;;;;;;20.44;35.35;97734.94;10066055;29;20053;-86
2022/03/16 15:10:26;;;;;;;7.82;6.47;;;;;;;20.44;35.31;97734.94;10048143;29;20053;-85
2022/03/16 15:15:46;;;;;;;8.15;7.13;;;;;;;20.48;35.60;97736.75;10059014;29;20054;-84
2022/03/16 15:21:08;;;;;;;11.55;6.93;;;;;;;20.51;35.88;97732.63;10057326;29;20057;-85
2022/03/16 15:26:27;;;;;;;7.75;6.97;;;;;;;20.51;36.01;97724.50;10057061;29;20398;-84
2022/03/16 15:31:47;;;;;;;9.63;7.88;;;;;;;20.54;36.07;97729.28;10058207;29;20397;-85
2022/03/16 15:37:07;;;;;;;9.35;7.38;;;;;;;20.57;36.20;97730.59;10071291;29;20124;-85
2022/03/16 15:42:39;;;;;;;7.50;6.32;;;;;;;20.60;36.55;97740.81;10081255;29;20531;-85
2022/03/16 15:47:58;;;;;;;6.90;6.20;;;;;;;20.61;36.91;97739.72;10058689;29;20124;-85
2022/03/16 15:53:18;;;;;;;9.07;6.60;;;;;;;20.63;36.82;97737.50;10031554;29;20049;-84
2022/03/16 15:58:38;;;;;;;9.80;6.68;;;;;;;20.65;37.87;97741.50;10075783;29;20065;-84
2022/03/16 16:03:58;;;;;;;8.70;6.07;;;;;;;20.66;38.20;97740.41;10053688;29;20528;-84
2022/03/16 16:09:17;;;;;;;6.72;5.97;;;;;;;20.70;38.35;97743.28;10083798;29;20049;-84
2022/03/16 16:14:37;;;;;;;8.23;6.15;;;;;;;20.72;38.86;97746.50;10044636;29;20048;-85
2022/03/16 16:19:56;;;;;;;7.10;6.40;;;;;;;20.72;39.13;97760.81;10054852;29;20052;-85
2022/03/16 16:25:16;;;;;;;7.72;6.13;;;;;;;20.70;38.70;97760.34;10043570;29;20041;-88
2022/03/16 16:30:37;;;;;;;8.15;6.20;;;;;;;20.72;38.77;97760.81;10030660;29;20049;-89
2022/03/16 16:35:58;;;;;;;7.38;6.05;;;;;;;20.73;38.99;97761.63;10051667;29;20533;-89
2022/03/16 16:41:18;;;;;;;6.72;5.97;;;;;;;20.73;39.07;97762.41;10042656;29;20053;-88
2022/03/16 16:46:39;;;;;;;6.97;5.63;;;;;;;20.73;39.25;97772.44;10048510;29;20056;-87
2022/03/16 16:51:59;;;;;;;7.45;5.57;;;;;;;20.73;39.43;97772.44;10053587;29;20045;-88
2022/03/16 16:57:20;;;;;;;7.20;6.15;;;;;;;20.73;39.33;97765.13;10033224;29;20061;-87
2022/03/16 17:02:40;;;;;;;8.02;5.40;;;;;;;20.74;39.27;97760.53;10055039;29;20037;-86
2022/03/16 17:08:02;;;;;;;6.00;5.40;;;;;;;20.74;39.63;97771.34;10036088;29;20052;-87
2022/03/16 17:13:25;;;;;;;7.68;5.78;;;;;;;20.74;40.07;97772.16;10035301;29;20041;-86
2022/03/16 17:18:45;;;;;;;7.57;5.82;;;;;;;20.74;40.52;97782.97;10054437;29;20041;-86
2022/03/16 17:24:06;;;;;;;6.75;5.80;;;;;;;20.73;40.42;97792.19;10065967;29;20052;-87
2022/03/16 17:29:26;;;;;;;8.95;5.90;;;;;;;20.72;40.59;97793.31;10072101;29;20497;-87
2022/03/16 17:34:46;;;;;;;9.73;5.47;;;;;;;20.71;41.01;97790.91;10053589;29;20057;-87
2022/03/16 17:40:11;;;;;;;12.65;4.97;;;;;;;20.72;41.22;97792.53;10072368;29;20049;-86
2022/03/16 17:45:31;;;;;;;8.43;5.40;;;;;;;20.71;41.57;97794.41;10031463;29;20073;-86
2022/03/16 17:50:52;;;;;;;8.70;5.55;;;;;;;20.71;41.38;97794.41;10047880;29;20441;-86
2022/03/16 18:01:51;;;;;;;7.22;5.63;;;;;;;20.71;41.34;97805.25;10092033;29;20044;-87
2022/03/16 18:07:11;;;;;;;9.90;7.40;;;;;;;20.71;40.15;97807.16;10081286;29;20045;-85
2022/03/16 18:18:09;;;;;;;8.18;6.55;;;;;;;20.68;41.05;97815.88;10083881;29;20037;-85
2022/03/16 18:23:30;;;;;;;8.88;6.78;;;;;;;20.67;41.07;97831.34;10095323;29;20047;-84
2022/03/16 18:28:49;;;;;;;9.57;6.78;;;;;;;20.66;41.19;97837.88;10061599;29;20034;-84
2022/03/16 18:34:09;;;;;;;7.68;6.75;;;;;;;20.66;41.12;97828.91;10090960;29;20041;-85
2022/03/16 18:39:29;;;;;;;9.05;6.70;;;;;;;20.65;40.94;97832.75;10091444;29;20056;-84
2022/03/16 18:44:48;;;;;;;6.28;5.68;;;;;;;20.66;40.93;97842.47;10076387;29;20048;-84
2022/03/16 18:50:08;;;;;;;7.25;6.55;;;;;;;20.62;40.87;97845.00;10071241;29;20042;-86
2022/03/16 18:55:29;;;;;;;8.55;6.57;;;;;;;20.61;41.24;97848.81;10074154;29;20562;-88
2022/03/16 19:00:49;;;;;;;6.72;5.90;;;;;;;20.62;40.97;97850.41;10040999;29;20073;-85
2022/03/16 19:06:09;;;;;;;8.25;6.70;;;;;;;20.60;40.91;97849.94;10044039;29;20081;-85
2022/03/16 19:17:07;;;;;;;9.07;6.20;;;;;;;20.59;40.91;97859.13;10047931;29;20042;-85
2022/03/16 19:22:28;;;;;;;8.57;5.57;;;;;;;20.58;41.16;97854.00;10037254;29;20049;-88
2022/03/16 19:27:50;;;;;;;7.75;5.60;;;;;;;20.58;41.17;97848.56;10045887;29;20037;-88
2022/03/16 19:33:11;;;;;;;7.90;5.55;;;;;;;20.57;41.50;97845.06;10039906;29;20041;-90
2022/03/16 19:38:32;;;;;;;7.75;5.60;;;;;;;20.55;41.56;97834.56;10040804;29;20098;-89
2022/03/16 19:43:54;;;;;;;7.35;5.80;;;;;;;20.55;41.66;97844.59;10012481;29;20124;-88
2022/03/16 19:49:14;;;;;;;7.55;5.22;;;;;;;20.54;41.63;97842.97;10026941;29;20042;-89
2022/03/16 19:54:34;;;;;;;7.15;5.55;;;;;;;20.53;41.55;97831.34;10029206;29;20098;-85
2022/03/16 19:59:53;;;;;;;8.13;5.88;;;;;;;20.52;41.55;97839.75;10047715;29;20045;-87
2022/03/16 20:05:14;;;;;;;8.98;5.40;;;;;;;20.51;41.80;97838.19;10049699;29;20052;-85
2022/03/16 20:10:34;;;;;;;6.35;5.22;;;;;;;20.51;41.68;97835.47;10064045;29;20080;-84
2022/03/16 20:15:54;;;;;;;9.35;5.30;;;;;;;20.49;41.96;97829.56;10048069;29;20045;-85
2022/03/16 20:21:14;;;;;;;6.82;5.88;;;;;;;20.49;41.87;97834.97;10076781;29;20046;-83
2022/03/16 20:26:34;;;;;;;7.65;5.15;;;;;;;20.49;41.91;97834.97;10093079;29;20046;-83
2022/03/16 20:31:53;;;;;;;9.35;5.50;;;;;;;20.47;42.06;97837.19;10060982;29;20053;-83
2022/03/16 20:37:13;;;;;;;8.70;5.30;;;;;;;20.47;41.92;97839.91;10038887;29;20048;-83
2022/03/16 20:42:35;;;;;;;6.72;4.90;;;;;;;20.46;42.12;97839.06;10065929;29;21264;-83
2022/03/16 20:47:55;;;;;;;5.80;4.93;;;;;;;20.45;42.03;97839.41;10064253;29;20045;-84
2022/03/16 20:53:14;;;;;;;8.02;5.63;;;;;;;20.43;41.92;97845.13;10062675;29;20049;-84
2022/03/16 21:04:12;;;;;;;6.72;5.07;;;;;;;20.42;42.11;97848.13;10064271;29;20094;-83
2022/03/16 21:09:32;;;;;;;5.95;5.35;;;;;;;20.41;42.19;97846.53;10065967;29;20038;-83
2022/03/16 21:14:51;;;;;;;9.13;6.38;;;;;;;20.39;42.07;97846.03;10069397;29;20037;-83
2022/03/16 21:20:12;;;;;;;8.30;6.10;;;;;;;20.38;42.02;97856.03;10059151;29;20056;-83
2022/03/16 21:25:32;;;;;;;6.60;5.88;;;;;;;20.37;42.03;97851.75;10027789;29;20421;-83
2022/03/16 21:30:53;;;;;;;7.82;6.22;;;;;;;20.36;41.87;97847.44;10084216;29;20112;-84
2022/03/16 21:36:13;;;;;;;6.75;5.88;;;;;;;20.35;41.94;97843.13;10064833;29;20429;-85
2022/03/16 21:47:12;;;;;;;7.22;6.10;;;;;;;20.32;41.71;97852.63;10055932;29;20045;-85
2022/03/16 21:52:31;;;;;;;7.53;6.25;;;;;;;20.31;41.69;97848.34;10056546;29;20048;-85
2022/03/16 21:57:52;;;;;;;6.28;5.68;;;;;;;20.30;41.66;97849.44;10047549;29;20053;-84
2022/03/16 22:03:13;;;;;;;8.55;5.90;;;;;;;20.29;41.46;97852.47;10054814;29;20046;-84
2022/03/16 22:08:33;;;;;;;7.03;5.93;;;;;;;20.27;41.54;97863.59;10042893;29;20041;-84
2022/03/16 22:13:52;;;;;;;7.63;6.10;;;;;;;20.27;41.49;97854.69;10054613;29;20041;-85
2022/03/16 22:19:11;;;;;;;7.68;5.75;;;;;;;20.24;41.50;97850.66;10057646;29;20108;-84
2022/03/16 22:24:31;;;;;;;9.07;6.03;;;;;;;20.24;41.35;97857.97;10058507;29;20041;-84
2022/03/16 22:29:50;;;;;;;6.88;6.10;;;;;;;20.24;41.32;97855.28;10051541;29;20038;-84
2022/03/16 22:35:09;;;;;;;7.68;5.80;;;;;;;20.20;41.42;97871.31;10067420;29;20041;-84
2022/03/16 22:40:29;;;;;;;7.53;6.32;;;;;;;20.21;41.29;97888.34;10043301;29;20041;-84
2022/03/16 22:45:49;;;;;;;6.60;5.95;;;;;;;20.19;41.32;97866.19;10039915;29;20064;-84
2022/03/16 22:51:09;;;;;;;6.35;5.60;;;;;;;20.18;41.23;97859.97;10047634;29;20046;-84
2022/03/16 22:56:29;;;;;;;7.97;5.43;;;;;;;20.15;41.04;97864.09;10046605;29;20049;-84
2022/03/16 23:01:48;;;;;;;6.65;5.80;;;;;;;20.15;41.19;97861.41;10104332;29;20049;-84
2022/03/16 23:07:08;;;;;;;6.80;6.13;;;;;;;20.13;41.23;97857.38;10111082;29;20167;-84
2022/03/16 23:12:28;;;;;;;5.90;5.30;;;;;;;20.12;41.02;97874.72;10100820;29;20047;-84
2022/03/16 23:17:49;;;;;;;5.68;5.18;;;;;;;20.10;41.19;97883.13;10118062;29;20045;-84
2022/03/16 23:23:09;;;;;;;6.43;5.57;;;;;;;20.09;41.02;97872.59;10107358;29;20066;-84
2022/03/16 23:28:28;;;;;;;6.43;5.30;;;;;;;20.08;40.95;97843.97;10120674;29;20045;-84
2022/03/16 23:33:48;;;;;;;6.25;5.65;;;;;;;20.05;40.88;97828.34;10104612;29;20546;-84
2022/03/16 23:39:08;;;;;;;6.03;5.40;;;;;;;20.06;41.01;97829.94;10102846;29;20578;-85
2022/03/16 23:44:27;;;;;;;5.30;4.68;;;;;;;20.03;41.03;97827.84;10135530;29;20052;-84
2022/03/16 23:49:47;;;;;;;6.03;5.43;;;;;;;20.02;41.09;97818.94;10137856;29;20041;-85
2022/03/16 23:55:07;;;;;;;5.70;5.20;;;;;;;20.00;40.94;97806.81;10111298;29;20041;-85
